createdAt,value
2023-11-01T00:00:52.114Z,27.77
2023-11-01T00:02:53.872Z,27.76
2023-11-01T00:04:55.480Z,27.75
2023-11-01T00:06:57.200Z,27.75
2023-11-01T00:08:59.159Z,27.76
2023-11-01T00:11:00.881Z,27.77
2023-11-01T00:13:02.450Z,27.76
2023-11-01T00:15:04.292Z,27.77
2023-11-01T00:17:06.059Z,27.76
2023-11-01T00:19:07.673Z,27.77
2023-11-01T00:21:09.411Z,27.78
2023-11-01T00:23:11.084Z,27.77
2023-11-01T00:25:12.718Z,27.75
2023-11-01T00:27:14.268Z,27.77
2023-11-01T00:29:16.080Z,27.76
2023-11-01T00:31:17.889Z,27.75
2023-11-01T00:33:19.702Z,27.78
2023-11-01T00:35:21.339Z,27.78
2023-11-01T00:37:22.968Z,27.78
2023-11-01T00:39:24.547Z,27.78
2023-11-01T00:41:26.602Z,27.80
2023-11-01T00:43:28.183Z,27.75
2023-11-01T00:45:29.810Z,27.75
2023-11-01T00:47:31.464Z,27.76
2023-11-01T00:49:33.875Z,27.77
2023-11-01T00:51:35.452Z,27.77
2023-11-01T00:53:37.110Z,27.76
2023-11-01T00:55:38.750Z,27.80
2023-11-01T00:57:40.380Z,27.79
2023-11-01T00:59:42.087Z,27.80
2023-11-01T01:01:43.649Z,27.82
2023-11-01T01:03:45.389Z,27.79
2023-11-01T01:05:47.201Z,27.83
2023-11-01T01:07:48.774Z,27.83
2023-11-01T01:09:50.423Z,27.82
2023-11-01T01:11:52.107Z,27.82
2023-11-01T01:13:53.703Z,27.81
2023-11-01T01:15:55.484Z,27.82
2023-11-01T01:17:57.358Z,27.81
2023-11-01T01:19:59.020Z,27.78
2023-11-01T01:22:00.544Z,27.83
2023-11-01T01:24:04.145Z,27.83
2023-11-01T01:26:05.844Z,27.86
2023-11-01T01:28:07.524Z,27.87
2023-11-01T01:30:10.658Z,27.87
2023-11-01T01:32:12.305Z,27.88
2023-11-01T01:34:13.865Z,27.87
2023-11-01T01:36:15.597Z,27.85
2023-11-01T01:38:17.255Z,27.87
2023-11-01T01:40:18.817Z,27.86
2023-11-01T01:42:20.431Z,27.87
2023-11-01T01:44:22.058Z,27.90
2023-11-01T01:46:29.401Z,27.87
2023-11-01T01:48:31.158Z,27.88
2023-11-01T01:50:33.076Z,27.91
2023-11-01T01:56:48.351Z,27.89
2023-11-01T01:58:52.188Z,27.91
2023-11-01T02:00:55.515Z,27.92
2023-11-01T02:02:57.677Z,27.91
2023-11-01T02:04:59.584Z,27.91
2023-11-01T02:07:01.245Z,27.93
2023-11-01T02:09:06.307Z,27.93
2023-11-01T02:11:08.095Z,27.94
2023-11-01T02:13:13.634Z,27.92
2023-11-01T02:15:15.313Z,27.94
2023-11-01T02:17:16.990Z,27.95
2023-11-01T02:19:18.940Z,27.94
2023-11-01T02:21:20.669Z,27.94
2023-11-01T02:23:35.920Z,27.93
2023-11-01T02:25:38.731Z,27.93
2023-11-01T02:27:41.514Z,27.92
2023-11-01T02:29:43.215Z,27.96
2023-11-01T02:31:45.054Z,27.97
2023-11-01T02:33:46.702Z,27.93
2023-11-01T02:35:48.286Z,27.96
2023-11-01T02:37:50.243Z,27.96
2023-11-01T02:39:51.793Z,27.97
2023-11-01T02:41:53.578Z,27.99
2023-11-01T02:43:55.208Z,27.99
2023-11-01T02:45:56.837Z,27.99
2023-11-01T02:47:58.581Z,28.00
2023-11-01T02:50:00.315Z,28.00
2023-11-01T02:52:01.968Z,28.01
2023-11-01T02:54:03.757Z,27.99
2023-11-01T02:56:06.887Z,28.01
2023-11-01T02:58:08.483Z,27.99
2023-11-01T03:00:19.344Z,28.02
2023-11-01T03:02:21.223Z,28.01
2023-11-01T03:04:23.131Z,28.01
2023-11-01T03:06:24.668Z,28.03
2023-11-01T03:08:26.291Z,28.02
2023-11-01T03:10:27.956Z,28.02
2023-11-01T03:12:29.559Z,28.02
2023-11-01T03:14:31.270Z,28.03
2023-11-01T03:16:37.086Z,28.00
2023-11-01T03:18:38.794Z,28.05
2023-11-01T03:20:40.576Z,28.04
2023-11-01T03:22:42.193Z,28.02
2023-11-01T03:24:43.752Z,28.05
2023-11-01T03:26:45.363Z,28.04
2023-11-01T03:28:46.946Z,28.04
2023-11-01T03:30:48.577Z,28.05
2023-11-01T03:32:50.739Z,28.05
2023-11-01T03:34:53.246Z,28.05
2023-11-01T03:36:54.858Z,28.05
2023-11-01T03:38:56.606Z,28.02
2023-11-01T03:40:58.316Z,28.06
2023-11-01T03:42:59.932Z,28.06
2023-11-01T03:45:01.601Z,28.05
2023-11-01T03:47:03.688Z,28.07
2023-11-01T03:49:05.265Z,28.08
2023-11-01T03:51:07.068Z,28.06
2023-11-01T03:53:09.262Z,28.09
2023-11-01T03:55:12.887Z,28.09
2023-11-01T03:57:14.749Z,28.09
2023-11-01T03:59:16.322Z,28.08
2023-11-01T04:01:18.082Z,28.09
2023-11-01T04:03:19.834Z,28.08
2023-11-01T04:05:21.658Z,28.08
2023-11-01T04:07:23.351Z,28.09
2023-11-01T04:09:25.274Z,28.09
2023-11-01T04:11:26.834Z,28.11
2023-11-01T04:13:28.635Z,28.11
2023-11-01T04:15:30.266Z,28.09
2023-11-01T04:17:32.881Z,28.10
2023-11-01T04:19:35.075Z,28.11
2023-11-01T04:21:36.789Z,28.11
2023-11-01T04:23:38.426Z,28.09
2023-11-01T04:25:39.961Z,28.10
2023-11-01T04:27:42.823Z,28.07
2023-11-01T04:29:44.623Z,28.08
2023-11-01T04:31:46.371Z,28.10
2023-11-01T04:33:47.930Z,28.12
2023-11-01T04:35:49.599Z,28.10
2023-11-01T04:37:51.264Z,28.13
2023-11-01T04:39:53.535Z,28.14
2023-11-01T04:41:55.304Z,28.14
2023-11-01T04:43:57.206Z,28.10
2023-11-01T04:45:58.825Z,28.13
2023-11-01T04:48:01.292Z,28.11
2023-11-01T04:50:09.837Z,28.13
2023-11-01T04:52:12.249Z,28.11
2023-11-01T04:54:13.921Z,28.13
2023-11-01T04:56:15.529Z,28.14
2023-11-01T04:58:17.233Z,28.13
2023-11-01T05:00:19.052Z,28.14
2023-11-01T05:02:20.747Z,28.15
2023-11-01T05:04:22.508Z,28.17
2023-11-01T05:06:24.166Z,28.15
2023-11-01T05:08:25.727Z,28.12
2023-11-01T05:10:27.597Z,28.11
2023-11-01T05:12:29.641Z,28.13
2023-11-01T05:14:31.328Z,28.12
2023-11-01T05:16:33.313Z,28.14
2023-11-01T05:18:34.904Z,28.10
2023-11-01T05:20:36.539Z,28.14
2023-11-01T05:22:38.232Z,28.14
2023-11-01T05:24:39.916Z,28.14
2023-11-01T05:26:41.567Z,28.17
2023-11-01T05:28:43.801Z,28.18
2023-11-01T05:30:48.129Z,28.18
2023-11-01T05:32:50.009Z,28.16
2023-11-01T05:34:51.607Z,28.18
2023-11-01T05:36:53.293Z,28.16
2023-11-01T05:38:55.203Z,28.17
2023-11-01T05:40:56.798Z,28.14
2023-11-01T05:42:58.389Z,28.16
2023-11-01T05:45:00.028Z,28.18
2023-11-01T05:47:01.730Z,28.18
2023-11-01T05:49:05.343Z,28.15
2023-11-01T05:51:07.541Z,28.19
2023-11-01T05:53:11.079Z,28.17
2023-11-01T05:55:18.507Z,28.15
2023-11-01T05:57:25.678Z,28.17
2023-11-01T05:59:27.279Z,28.15
2023-11-01T06:01:28.945Z,28.13
2023-11-01T06:03:32.086Z,28.14
2023-11-01T06:05:36.338Z,28.17
2023-11-01T06:07:37.885Z,28.16
2023-11-01T06:09:39.476Z,28.17
2023-11-01T06:11:42.969Z,28.17
2023-11-01T06:13:45.038Z,28.16
2023-11-01T06:15:46.654Z,28.18
2023-11-01T06:17:48.776Z,28.18
2023-11-01T06:19:50.529Z,28.18
2023-11-01T06:21:52.165Z,28.17
2023-11-01T06:23:53.885Z,28.18
2023-11-01T06:25:55.555Z,28.19
2023-11-01T06:27:57.372Z,28.19
2023-11-01T06:29:59.587Z,28.18
2023-11-01T06:32:02.184Z,28.18
2023-11-01T06:34:05.410Z,28.18
2023-11-01T06:36:08.098Z,28.18
2023-11-01T06:38:09.706Z,28.18
2023-11-01T06:40:12.463Z,28.19
2023-11-01T06:42:14.116Z,28.17
2023-11-01T06:44:15.648Z,28.17
2023-11-01T06:46:17.328Z,28.18
2023-11-01T06:48:19.186Z,28.17
2023-11-01T06:50:20.877Z,28.19
2023-11-01T06:52:22.493Z,28.19
2023-11-01T06:54:24.092Z,28.19
2023-11-01T06:56:25.773Z,28.15
2023-11-01T06:58:27.503Z,28.19
2023-11-01T07:00:29.158Z,28.20
2023-11-01T07:02:30.955Z,28.19
2023-11-01T07:04:32.650Z,28.18
2023-11-01T07:06:34.798Z,28.18
2023-11-01T07:08:36.602Z,28.18
2023-11-01T07:10:38.355Z,28.18
2023-11-01T07:12:40.336Z,28.16
2023-11-01T07:14:41.959Z,28.15
2023-11-01T07:16:43.808Z,28.15
2023-11-01T07:18:45.448Z,28.15
2023-11-01T07:20:47.086Z,28.17
2023-11-01T07:22:48.724Z,28.16
2023-11-01T07:24:50.553Z,28.18
2023-11-01T07:26:52.284Z,28.17
2023-11-01T07:31:00.796Z,28.14
2023-11-01T07:33:03.191Z,28.13
2023-11-01T07:35:05.603Z,28.12
2023-11-01T07:37:07.657Z,28.14
2023-11-01T07:39:10.096Z,28.15
2023-11-01T07:41:11.911Z,28.15
2023-11-01T07:43:13.601Z,28.17
2023-11-01T07:45:15.234Z,28.18
2023-11-01T07:47:16.896Z,28.15
2023-11-01T07:49:18.555Z,28.16
2023-11-01T07:51:20.197Z,28.16
2023-11-01T07:53:21.929Z,28.17
2023-11-01T07:55:23.541Z,28.16
2023-11-01T07:57:26.241Z,28.13
2023-11-01T07:59:28.981Z,28.16
2023-11-01T08:01:32.780Z,28.15
2023-11-01T08:03:35.864Z,28.15
2023-11-01T08:05:37.582Z,28.17
2023-11-01T08:07:39.409Z,28.18
2023-11-01T08:09:41.732Z,28.16
2023-11-01T08:11:43.413Z,28.14
2023-11-01T08:13:45.094Z,28.17
2023-11-01T08:15:46.808Z,28.17
2023-11-01T08:17:48.548Z,28.14
2023-11-01T08:19:50.180Z,28.13
2023-11-01T08:21:51.747Z,28.14
2023-11-01T08:23:53.439Z,28.16
2023-11-01T08:25:55.379Z,28.16
2023-11-01T08:27:56.953Z,28.18
2023-11-01T08:29:58.505Z,28.18
2023-11-01T08:32:00.187Z,28.19
2023-11-01T08:34:02.109Z,28.20
2023-11-01T08:36:04.034Z,28.21
2023-11-01T08:38:09.708Z,28.20
2023-11-01T08:40:11.860Z,28.18
2023-11-01T08:42:13.473Z,28.15
2023-11-01T08:44:15.155Z,28.17
2023-11-01T08:46:17.732Z,28.15
2023-11-01T08:48:19.494Z,28.16
2023-11-01T08:50:21.081Z,28.18
2023-11-01T08:52:22.814Z,28.14
2023-11-01T08:54:26.020Z,28.19
2023-11-01T08:56:27.881Z,28.20
2023-11-01T08:58:29.880Z,28.20
2023-11-01T09:00:39.514Z,28.22
2023-11-01T09:02:47.518Z,28.18
2023-11-01T09:04:49.156Z,28.20
2023-11-01T09:06:50.739Z,28.16
2023-11-01T09:08:52.502Z,28.17
2023-11-01T09:10:54.808Z,28.18
2023-11-01T09:12:56.521Z,28.19
2023-11-01T09:14:58.517Z,28.19
2023-11-01T09:17:00.181Z,28.18
2023-11-01T09:19:01.829Z,28.19
2023-11-01T09:21:03.695Z,28.19
2023-11-01T09:23:05.367Z,28.20
2023-11-01T09:25:07.459Z,28.18
2023-11-01T09:27:09.062Z,28.19
2023-11-01T09:29:11.467Z,28.20
2023-11-01T09:31:13.060Z,28.20
2023-11-01T09:33:14.822Z,28.19
2023-11-01T09:35:16.991Z,28.17
2023-11-01T09:37:19.074Z,28.19
2023-11-01T09:39:21.631Z,28.22
2023-11-01T09:41:28.440Z,28.20
2023-11-01T09:43:32.257Z,28.21
2023-11-01T09:45:34.297Z,28.20
2023-11-01T09:47:37.647Z,28.21
2023-11-01T09:49:39.540Z,28.20
2023-11-01T09:51:41.215Z,28.18
2023-11-01T09:53:42.810Z,28.20
2023-11-01T09:55:45.364Z,28.18
2023-11-01T09:57:48.680Z,28.18
2023-11-01T09:59:51.311Z,28.20
2023-11-01T10:01:53.033Z,28.21
2023-11-01T10:03:56.714Z,28.20
2023-11-01T10:05:58.328Z,28.22
2023-11-01T10:07:59.999Z,28.19
2023-11-01T10:10:04.791Z,28.23
2023-11-01T10:12:09.273Z,28.22
2023-11-01T10:14:11.014Z,28.23
2023-11-01T10:16:13.547Z,28.22
2023-11-01T10:18:15.436Z,28.22
2023-11-01T10:20:28.602Z,28.22
2023-11-01T10:22:30.270Z,28.22
2023-11-01T10:24:31.993Z,28.22
2023-11-01T10:26:33.756Z,28.23
2023-11-01T10:28:41.267Z,28.24
2023-11-01T10:30:47.721Z,28.25
2023-11-01T10:32:57.606Z,28.20
2023-11-01T10:35:12.356Z,28.26
2023-11-01T10:37:18.681Z,28.24
2023-11-01T10:39:21.680Z,28.24
2023-11-01T10:41:25.125Z,28.24
2023-11-01T10:43:31.525Z,28.22
2023-11-01T10:45:33.373Z,28.25
2023-11-01T10:47:36.777Z,28.23
2023-11-01T10:49:39.452Z,28.25
2023-11-01T10:51:42.375Z,28.26
2023-11-01T10:53:45.244Z,28.26
2023-11-01T10:55:47.005Z,28.24
2023-11-01T10:57:50.459Z,28.24
2023-11-01T11:00:17.388Z,28.20
2023-11-01T11:02:25.463Z,28.23
2023-11-01T11:04:54.009Z,28.23
2023-11-01T11:07:01.469Z,28.24
2023-11-01T11:09:25.527Z,28.23
2023-11-01T11:11:27.245Z,28.26
2023-11-01T11:13:29.981Z,28.25
2023-11-01T11:15:47.058Z,28.25
2023-11-01T11:18:08.148Z,28.25
2023-11-01T11:20:14.060Z,28.23
2023-11-01T11:22:17.051Z,28.26
2023-11-01T11:24:40.084Z,28.26
2023-11-01T11:31:13.833Z,28.26
2023-11-01T11:33:16.252Z,28.24
2023-11-01T11:35:23.497Z,28.25
2023-11-01T11:37:32.161Z,28.25
2023-11-01T11:40:01.181Z,28.25
2023-11-01T11:42:02.890Z,28.25
2023-11-01T11:44:14.419Z,28.26
2023-11-01T11:46:29.722Z,28.26
2023-11-01T11:48:41.650Z,28.24
2023-11-01T11:50:43.580Z,28.24
2023-11-01T11:52:46.410Z,28.23
2023-11-01T11:54:48.855Z,28.25
2023-11-01T11:57:09.827Z,28.26
2023-11-01T11:59:18.004Z,28.24
2023-11-01T12:01:27.537Z,28.23
2023-11-01T12:03:29.258Z,28.27
2023-11-01T12:05:33.504Z,28.27
2023-11-01T12:07:43.664Z,28.26
2023-11-01T12:09:49.905Z,28.26
2023-11-01T12:11:56.401Z,28.26
2023-11-01T12:13:57.990Z,28.25
2023-11-01T12:15:59.621Z,28.26
2023-11-01T12:18:13.939Z,28.26
2023-11-01T12:20:30.903Z,28.29
2023-11-01T12:22:38.064Z,28.27
2023-11-01T12:24:45.741Z,28.28
2023-11-01T12:27:00.133Z,28.27
2023-11-01T12:29:05.617Z,28.28
2023-11-01T12:31:17.173Z,28.28
2023-11-01T12:33:20.073Z,28.26
2023-11-01T12:35:21.699Z,28.31
2023-11-01T12:37:25.480Z,28.27
2023-11-01T12:39:27.461Z,28.28
2023-11-01T12:41:29.103Z,28.28
2023-11-01T12:43:30.768Z,28.27
2023-11-01T12:45:33.985Z,28.31
2023-11-01T12:47:54.803Z,28.29
2023-11-01T12:49:59.453Z,28.29
2023-11-01T12:52:01.148Z,28.30
2023-11-01T12:54:02.813Z,28.26
2023-11-01T12:56:04.738Z,28.28
2023-11-01T12:58:08.482Z,28.30
2023-11-01T13:00:13.712Z,28.30
2023-11-01T13:02:15.577Z,28.29
2023-11-01T13:04:18.251Z,28.27
2023-11-01T13:06:19.913Z,28.30
2023-11-01T13:08:23.373Z,28.31
2023-11-01T13:10:25.964Z,28.29
2023-11-01T13:12:28.636Z,28.30
2023-11-01T13:14:32.926Z,28.30
2023-11-01T13:16:34.835Z,28.28
2023-11-01T13:18:36.490Z,28.32
2023-11-01T13:20:38.203Z,28.27
2023-11-01T13:22:39.766Z,28.33
2023-11-01T13:24:41.650Z,28.32
2023-11-01T13:26:43.324Z,28.33
2023-11-01T13:28:44.916Z,28.33
2023-11-01T13:30:47.216Z,28.34
2023-11-01T13:32:48.917Z,28.31
2023-11-01T13:34:50.522Z,28.32
2023-11-01T13:36:53.767Z,28.32
2023-11-01T13:38:56.684Z,28.29
2023-11-01T13:40:58.353Z,28.30
2023-11-01T13:42:59.989Z,28.31
2023-11-01T13:45:02.379Z,28.28
2023-11-01T13:47:04.264Z,28.32
2023-11-01T13:49:05.963Z,28.31
2023-11-01T13:51:08.153Z,28.32
2023-11-01T13:53:10.395Z,28.28
2023-11-01T13:55:12.081Z,28.29
2023-11-01T13:57:13.773Z,28.31
2023-11-01T13:59:15.338Z,28.29
2023-11-01T14:01:16.878Z,28.30
2023-11-01T14:03:18.778Z,28.31
2023-11-01T14:05:21.678Z,28.34
2023-11-01T14:07:26.843Z,28.28
2023-11-01T14:09:28.474Z,28.32
2023-11-01T14:11:30.028Z,28.34
2023-11-01T14:13:31.564Z,28.34
2023-11-01T14:15:35.287Z,28.31
2023-11-01T14:17:37.148Z,28.33
2023-11-01T14:19:38.951Z,28.32
2023-11-01T14:21:40.689Z,28.33
2023-11-01T14:23:45.129Z,28.34
2023-11-01T14:25:47.052Z,28.34
2023-11-01T14:27:50.566Z,28.33
2023-11-01T14:29:52.200Z,28.36
2023-11-01T14:31:53.828Z,28.34
2023-11-01T14:33:55.614Z,28.37
2023-11-01T14:35:57.533Z,28.34
2023-11-01T14:38:00.420Z,28.36
2023-11-01T14:40:02.452Z,28.36
2023-11-01T14:42:04.333Z,28.32
2023-11-01T14:44:06.564Z,28.36
2023-11-01T14:46:08.906Z,28.35
2023-11-01T14:48:10.701Z,28.33
2023-11-01T14:50:12.523Z,28.35
2023-11-01T14:52:14.095Z,28.37
2023-11-01T14:54:16.278Z,28.38
2023-11-01T14:56:18.663Z,28.37
2023-11-01T14:58:20.404Z,28.38
2023-11-01T15:00:22.191Z,28.38
2023-11-01T15:02:24.309Z,28.39
2023-11-01T15:04:25.915Z,28.36
2023-11-01T15:06:27.575Z,28.35
2023-11-01T15:08:29.154Z,28.40
2023-11-01T15:10:30.809Z,28.38
2023-11-01T15:12:32.435Z,28.36
2023-11-01T15:14:34.082Z,28.39
2023-11-01T15:16:37.176Z,28.36
2023-11-01T15:18:38.839Z,28.38
2023-11-01T15:20:41.779Z,28.38
2023-11-01T15:22:43.402Z,28.37
2023-11-01T15:24:49.398Z,28.37
2023-11-01T15:26:52.402Z,28.38
2023-11-01T15:28:55.025Z,28.37
2023-11-01T15:30:57.248Z,28.37
2023-11-01T15:32:59.049Z,28.36
2023-11-01T15:35:00.693Z,28.31
2023-11-01T15:37:03.542Z,28.37
2023-11-01T15:39:05.796Z,28.35
2023-11-01T15:41:07.447Z,28.37
2023-11-01T15:43:11.041Z,28.37
2023-11-01T15:45:12.736Z,28.35
2023-11-01T15:47:14.388Z,28.37
2023-11-01T15:49:16.266Z,28.38
2023-11-01T15:51:17.896Z,28.38
2023-11-01T15:53:19.451Z,28.36
2023-11-01T15:55:21.755Z,28.36
2023-11-01T15:57:25.571Z,28.35
2023-11-01T15:59:27.801Z,28.37
2023-11-01T16:01:29.386Z,28.37
2023-11-01T16:03:31.738Z,28.37
2023-11-01T16:05:33.852Z,28.36
2023-11-01T16:07:35.582Z,28.35
2023-11-01T16:09:39.283Z,28.33
2023-11-01T16:11:40.994Z,28.34
2023-11-01T16:13:42.997Z,28.36
2023-11-01T16:15:44.712Z,28.32
2023-11-01T16:17:46.775Z,28.33
2023-11-01T16:19:48.471Z,28.35
2023-11-01T16:21:50.075Z,28.29
2023-11-01T16:23:51.763Z,28.35
2023-11-01T16:25:55.361Z,28.31
2023-11-01T16:27:58.338Z,28.35
2023-11-01T16:30:00.165Z,28.36
2023-11-01T16:32:01.865Z,28.33
2023-11-01T16:34:04.203Z,28.34
2023-11-01T16:36:06.454Z,28.32
2023-11-01T16:38:08.992Z,28.26
2023-11-01T16:40:10.981Z,28.31
2023-11-01T16:42:13.926Z,28.31
2023-11-01T16:44:15.732Z,28.33
2023-11-01T16:46:17.600Z,28.33
2023-11-01T16:48:19.380Z,28.34
2023-11-01T16:50:21.169Z,28.31
2023-11-01T16:52:23.447Z,28.32
2023-11-01T16:54:25.079Z,28.30
2023-11-01T16:56:26.698Z,28.33
2023-11-01T16:58:29.243Z,28.30
2023-11-01T17:00:31.038Z,28.30
2023-11-01T17:02:42.540Z,28.33
2023-11-01T17:04:49.737Z,28.33
2023-11-01T17:06:51.339Z,28.34
2023-11-01T17:08:53.488Z,28.33
2023-11-01T17:10:55.192Z,28.33
2023-11-01T17:12:56.934Z,28.29
2023-11-01T17:14:58.640Z,28.33
2023-11-01T17:17:01.963Z,28.34
2023-11-01T17:19:03.612Z,28.34
2023-11-01T17:21:06.466Z,28.32
2023-11-01T17:23:09.873Z,28.33
2023-11-01T17:25:46.360Z,28.33
2023-11-01T17:27:47.933Z,28.31
2023-11-01T17:29:49.477Z,28.31
2023-11-01T17:31:53.009Z,28.31
2023-11-01T17:33:55.650Z,28.33
2023-11-01T17:35:57.368Z,28.31
2023-11-01T17:38:00.826Z,28.33
2023-11-01T17:40:02.462Z,28.33
2023-11-01T17:42:05.556Z,28.32
2023-11-01T17:44:07.378Z,28.32
2023-11-01T17:46:09.147Z,28.34
2023-11-01T17:48:10.859Z,28.30
2023-11-01T17:50:12.745Z,28.34
2023-11-01T17:52:30.616Z,28.33
2023-11-01T17:54:32.560Z,28.31
2023-11-01T17:56:34.214Z,28.32
2023-11-01T17:58:35.946Z,28.31
2023-11-01T18:00:37.703Z,28.33
2023-11-01T18:02:42.346Z,28.34
2023-11-01T18:04:43.981Z,28.33
2023-11-01T18:06:45.804Z,28.33
2023-11-01T18:08:47.831Z,28.33
2023-11-01T18:10:51.511Z,28.31
2023-11-01T18:12:53.112Z,28.33
2023-11-01T18:14:55.565Z,28.30
2023-11-01T18:16:57.246Z,28.29
2023-11-01T18:18:58.857Z,28.28
2023-11-01T18:21:09.188Z,28.32
2023-11-01T18:23:10.802Z,28.33
2023-11-01T18:25:33.494Z,28.33
2023-11-01T18:27:35.137Z,28.33
2023-11-01T18:29:37.442Z,28.29
2023-11-01T18:31:45.019Z,28.31
2023-11-01T18:33:54.586Z,28.28
2023-11-01T18:35:56.262Z,28.25
2023-11-01T18:37:57.895Z,28.27
2023-11-01T18:39:59.489Z,28.28
2023-11-01T18:42:01.463Z,28.29
2023-11-01T18:44:26.307Z,28.29
2023-11-01T18:46:32.525Z,28.28
2023-11-01T18:48:34.512Z,28.27
2023-11-01T18:50:36.205Z,28.29
2023-11-01T18:52:37.968Z,28.31
2023-11-01T18:54:44.038Z,28.30
2023-11-01T18:56:45.658Z,28.31
2023-11-01T18:58:49.718Z,28.29
2023-11-01T19:00:54.413Z,28.28
2023-11-01T19:03:04.769Z,28.28
2023-11-01T19:05:08.614Z,28.28
2023-11-01T19:07:11.597Z,28.28
2023-11-01T19:09:17.396Z,28.29
2023-11-01T19:11:19.052Z,28.30
2023-11-01T19:13:20.626Z,28.30
2023-11-01T19:15:40.289Z,28.32
2023-11-01T19:17:42.025Z,28.29
2023-11-01T19:19:48.371Z,28.31
2023-11-01T19:21:51.587Z,28.27
2023-11-01T19:23:53.664Z,28.25
2023-11-01T19:25:55.444Z,28.25
2023-11-01T19:27:56.983Z,28.28
2023-11-01T19:29:58.666Z,28.29
2023-11-01T19:32:00.242Z,28.27
2023-11-01T19:34:02.184Z,28.29
2023-11-01T19:36:11.406Z,28.28
2023-11-01T19:38:20.909Z,28.31
2023-11-01T19:40:24.710Z,28.30
2023-11-01T19:42:26.825Z,28.30
2023-11-01T19:44:28.442Z,28.29
2023-11-01T19:46:32.699Z,28.29
2023-11-01T19:48:34.430Z,28.28
2023-11-01T19:50:36.071Z,28.28
2023-11-01T19:52:37.969Z,28.27
2023-11-01T19:54:39.651Z,28.28
2023-11-01T19:56:41.400Z,28.29
2023-11-01T19:58:42.988Z,28.29
2023-11-01T20:00:44.668Z,28.29
2023-11-01T20:02:46.555Z,28.31
2023-11-01T20:04:49.935Z,28.29
2023-11-01T20:06:51.637Z,28.28
2023-11-01T20:08:53.378Z,28.24
2023-11-01T20:10:55.095Z,28.27
2023-11-01T20:12:56.689Z,28.30
2023-11-01T20:14:58.387Z,28.29
2023-11-01T20:17:00.660Z,28.27
2023-11-01T20:19:02.230Z,28.31
2023-11-01T20:21:04.073Z,28.31
2023-11-01T20:23:05.658Z,28.31
2023-11-01T20:25:08.650Z,28.34
2023-11-01T20:27:10.317Z,28.34
2023-11-01T20:29:13.150Z,28.34
2023-11-01T20:31:14.686Z,28.29
2023-11-01T20:33:16.761Z,28.33
2023-11-01T20:35:18.654Z,28.32
2023-11-01T20:37:20.548Z,28.29
2023-11-01T20:39:22.229Z,28.32
2023-11-01T20:41:23.863Z,28.32
2023-11-01T20:43:25.462Z,28.32
2023-11-01T20:45:27.079Z,28.31
2023-11-01T20:47:28.773Z,28.29
2023-11-01T20:49:30.421Z,28.26
2023-11-01T20:51:32.110Z,28.32
2023-11-01T20:53:33.750Z,28.32
2023-11-01T20:55:35.518Z,28.30
2023-11-01T20:57:37.418Z,28.32
2023-11-01T20:59:48.074Z,28.29
2023-11-01T21:01:49.650Z,28.31
2023-11-01T21:03:51.334Z,28.31
2023-11-01T21:05:53.412Z,28.31
2023-11-01T21:07:55.468Z,28.31
2023-11-01T21:10:03.009Z,28.29
2023-11-01T21:12:05.190Z,28.31
2023-11-01T21:14:06.834Z,28.32
2023-11-01T21:16:08.450Z,28.33
2023-11-01T21:18:10.804Z,28.28
2023-11-01T21:20:12.603Z,28.30
2023-11-01T21:22:16.005Z,28.26
2023-11-01T21:24:20.112Z,28.28
2023-11-01T21:26:21.760Z,28.26
2023-11-01T21:28:23.289Z,28.26
2023-11-01T21:30:25.240Z,28.28
2023-11-01T21:32:26.981Z,28.28
2023-11-01T21:34:29.514Z,28.28
2023-11-01T21:36:31.378Z,28.28
2023-11-01T21:38:32.968Z,28.27
2023-11-01T21:40:34.996Z,28.29
2023-11-01T21:42:36.802Z,28.27
2023-11-01T21:44:39.918Z,28.26
2023-11-01T21:46:42.229Z,28.27
2023-11-01T21:48:44.736Z,28.27
2023-11-01T21:50:56.719Z,28.21
2023-11-01T21:52:58.361Z,28.24
2023-11-01T21:55:09.396Z,28.27
2023-11-01T21:57:12.681Z,28.26
2023-11-01T21:59:17.898Z,28.26
2023-11-01T22:01:21.297Z,28.28
2023-11-01T22:03:32.208Z,28.26
2023-11-01T22:05:34.005Z,28.24
2023-11-01T22:07:36.780Z,28.24
2023-11-01T22:09:39.934Z,28.24
2023-11-01T22:11:45.069Z,28.22
2023-11-01T22:13:46.841Z,28.23
2023-11-01T22:15:48.538Z,28.20
2023-11-01T22:17:51.629Z,28.21
2023-11-01T22:19:54.146Z,28.17
2023-11-01T22:21:56.777Z,28.19
2023-11-01T22:24:03.359Z,28.21
2023-11-01T22:26:05.167Z,28.22
2023-11-01T22:28:09.814Z,28.17
2023-11-01T22:30:14.588Z,28.19
2023-11-01T22:32:19.181Z,28.21
2023-11-01T22:34:23.437Z,28.19
2023-11-01T22:36:28.455Z,28.18
2023-11-01T22:38:30.171Z,28.19
2023-11-01T22:40:33.605Z,28.20
2023-11-01T22:44:44.335Z,28.20
2023-11-01T22:46:45.945Z,28.21
2023-11-01T22:48:47.579Z,28.22
2023-11-01T22:50:49.410Z,28.23
2023-11-01T22:52:51.085Z,28.22
2023-11-01T22:54:52.755Z,28.22
2023-11-01T22:56:55.529Z,28.22
2023-11-01T22:58:57.167Z,28.18
2023-11-01T23:00:58.771Z,28.22
2023-11-01T23:03:00.506Z,28.22
2023-11-01T23:05:02.288Z,28.22
2023-11-01T23:07:04.168Z,28.22
2023-11-01T23:09:05.769Z,28.24
2023-11-01T23:11:07.407Z,28.24
2023-11-01T23:13:09.028Z,28.23
2023-11-01T23:15:11.901Z,28.22
2023-11-01T23:17:13.532Z,28.22
2023-11-01T23:23:32.079Z,28.22
2023-11-01T23:25:35.516Z,28.22
2023-11-01T23:27:37.210Z,28.23
2023-11-01T23:36:09.101Z,28.22
2023-11-01T23:38:16.195Z,28.23
2023-11-01T23:40:37.776Z,28.20
2023-11-01T23:46:56.363Z,28.20
2023-11-01T23:48:59.628Z,28.19
2023-11-01T23:51:07.977Z,28.20
2023-11-01T23:53:18.171Z,28.16
2023-11-01T23:55:19.751Z,28.22
2023-11-01T23:57:22.747Z,28.22
2023-11-01T23:59:24.659Z,28.20
